Wind from 095 at 12 knots gusting 18

Air temperature 24.4° C
Dewpoint 12.7° C

Last reported at 2014-Apr-23 11:50 UTC.
Time now 2014-Apr-23 12:38 UTC

Location: N 27°46' W 015°34'.
View on Google Maps.

See reports from other nearby stations

Tides Stations Pressure Air Temp Water Temp Dewpoint Dewpoint depression Visibility Wind Speed Wind Dir Waves Ship positions

  
sailing weather and tide predictions

DW8790 Maspalomas ES weather

date/time (UTC)wind fromknots sea level pressurealtimeterstation pressurevisibilityair tempwater tempwave heightnotes
2014-Apr-23 11:50 095 12 gusting 18 24.4
2014-Apr-23 11:40 103 13 gusting 21 24.4
2014-Apr-23 11:30 071 6 gusting 15 23.3
2014-Apr-23 11:20 266 4 gusting 15 23.3
2014-Apr-23 11:10 339 5 gusting 20 23.3
2014-Apr-23 11:00 088 12 gusting 22 23.3
2014-Apr-23 10:50 096 13 gusting 19 22.8
2014-Apr-23 10:40 069 13 gusting 21 22.8
2014-Apr-23 10:30 084 12 gusting 18 22.8
2014-Apr-23 10:20 074 10 gusting 17 22.2
2014-Apr-23 10:10 311 5 gusting 12 22.2
2014-Apr-23 10:00 155 2 gusting 6 21.7
2014-Apr-23 09:50 264 1 gusting 6 21.1
2014-Apr-23 09:40 296 0 gusting 6 21.1
2014-Apr-23 09:30 348 2 gusting 6 20.6
2014-Apr-23 09:20 266 2 gusting 5 20.0
2014-Apr-23 09:10 257 3 gusting 6 20.0
2014-Apr-23 09:00 255 1 gusting 6 20.0
2014-Apr-23 08:50 268 20.6
2014-Apr-23 08:40 350 20.0
2014-Apr-23 08:30 324 0 gusting 2 19.4
2014-Apr-23 08:20 281 18.9
2014-Apr-23 08:10 079 0 gusting 2 18.9
2014-Apr-23 08:00 079 0 gusting 2 18.3
2014-Apr-23 07:50 079 0 gusting 1 17.8
2014-Apr-23 07:40 005 1 gusting 4 17.2
2014-Apr-23 07:30 015 1 gusting 4 16.7
2014-Apr-23 07:20 010 2 gusting 5 16.7
2014-Apr-23 07:10 011 4 gusting 7 16.1
2014-Apr-23 07:00 356 5 gusting 7 15.0
2014-Apr-23 06:50 306 1 gusting 5 14.4
2014-Apr-23 06:40 310 2 gusting 5 14.4
2014-Apr-23 06:30 335 3 gusting 5 14.4
2014-Apr-23 06:20 300 2 gusting 4 14.4
2014-Apr-23 06:10 005 0 gusting 2 15.0
2014-Apr-23 06:00 013 0 gusting 2 15.0
2014-Apr-23 05:50 013 15.0
2014-Apr-23 05:40 013 0 gusting 2 15.0
2014-Apr-23 05:30 013 0 gusting 2 15.0
2014-Apr-23 05:20 013 0 gusting 4 15.0
2014-Apr-23 05:10 005 2 gusting 2 14.4
2014-Apr-23 05:00 005 1 gusting 2 15.0
2014-Apr-23 04:50 005 0 gusting 2 15.0
2014-Apr-23 04:40 005 15.0
2014-Apr-23 04:30 005 15.0
2014-Apr-23 04:20 005 15.0
2014-Apr-23 04:10 005 15.0
2014-Apr-23 04:00 005 15.6
2014-Apr-23 03:50 005 0 gusting 4 15.6
2014-Apr-23 03:40 009 1 gusting 2 15.0
2014-Apr-23 03:30 286 0 gusting 2 15.0
2014-Apr-23 03:20 135 1 gusting 2 15.0
2014-Apr-23 03:10 135 15.6
2014-Apr-23 03:00 135 15.6
2014-Apr-23 02:50 135 15.0
2014-Apr-23 02:40 135 15.6
2014-Apr-23 02:30 135 0 gusting 1 15.6
2014-Apr-23 02:20 135 15.6
2014-Apr-23 02:10 135 15.6
2014-Apr-23 02:00 135 15.6
2014-Apr-23 01:50 135 0 gusting 2 15.6
2014-Apr-23 01:40 135 1 gusting 2 15.6
2014-Apr-23 01:30 135 16.1
2014-Apr-23 01:20 135 16.1
2014-Apr-23 01:10 135 16.1
2014-Apr-23 01:00 135 1 gusting 2 16.1
2014-Apr-23 00:50 135 16.1
2014-Apr-23 00:40 135 16.1
2014-Apr-23 00:30 135 16.1
2014-Apr-23 00:20 135 1 gusting 2 16.1
2014-Apr-23 00:10 135 0 gusting 2 16.1
2014-Apr-23 00:00 135 16.7
2014-Apr-22 23:50 135 16.7
2014-Apr-22 23:40 135 0 gusting 1 16.7
2014-Apr-22 23:30 135 16.7
2014-Apr-22 23:20 135 16.7
2014-Apr-22 23:10 135 16.7
2014-Apr-22 23:00 135 17.2
2014-Apr-22 22:50 135 17.2
2014-Apr-22 22:40 135 17.2
2014-Apr-22 22:30 135 1 gusting 2 17.2
2014-Apr-22 22:20 135 0 gusting 2 17.8
2014-Apr-22 22:10 135 17.8
2014-Apr-22 22:00 135 17.8
2014-Apr-22 21:50 135 17.8
2014-Apr-22 21:40 135 2 gusting 4 18.3
2014-Apr-22 21:30 227 2 gusting 4 18.3
2014-Apr-22 21:20 187 2 gusting 4 18.3
2014-Apr-22 21:10 211 1 gusting 2 18.3
2014-Apr-22 21:00 284 17.8
2014-Apr-22 20:50 284 0 gusting 2 17.8
2014-Apr-22 20:40 284 1 gusting 2 18.3
2014-Apr-22 20:30 284 18.3
2014-Apr-22 20:20 284 18.3
2014-Apr-22 20:10 284 0 gusting 2 18.9
2014-Apr-22 20:00 283 1 gusting 4 18.9
2014-Apr-22 19:50 333 18.9
2014-Apr-22 19:40 331 1 gusting 6 19.4
2014-Apr-22 19:30 005 3 gusting 13 19.4
2014-Apr-22 19:20 083 9 gusting 13 19.4
2014-Apr-22 19:10 105 9 gusting 13 19.4
2014-Apr-22 19:00 063 9 gusting 17 20.0
2014-Apr-22 18:50 071 6 gusting 17 20.0
2014-Apr-22 18:40 095 11 gusting 15 20.0
2014-Apr-22 18:30 088 10 gusting 17 20.0
2014-Apr-22 18:20 102 10 gusting 17 20.0
2014-Apr-22 18:10 103 12 gusting 17 20.6
2014-Apr-22 18:00 094 13 gusting 19 20.6
2014-Apr-22 17:50 087 12 gusting 17 21.1
2014-Apr-22 17:40 109 12 gusting 18 21.1
2014-Apr-22 17:30 100 12 gusting 19 21.7
2014-Apr-22 17:20 103 13 gusting 19 21.7
2014-Apr-22 17:10 105 13 gusting 19 21.7
2014-Apr-22 17:00 110 13 gusting 19 21.7
2014-Apr-22 16:50 105 13 gusting 19 22.2
2014-Apr-22 16:40 088 12 gusting 20 22.2
2014-Apr-22 16:30 087 9 gusting 17 22.2
2014-Apr-22 16:20 105 12 gusting 20 22.2
2014-Apr-22 16:10 107 11 gusting 19 21.7
2014-Apr-22 16:00 112 12 gusting 18 21.7
2014-Apr-22 15:50 111 11 gusting 17 21.1
2014-Apr-22 15:40 113 12 gusting 17 21.1
2014-Apr-22 15:30 123 12 gusting 19 21.1
2014-Apr-22 15:20 110 10 gusting 19 21.7
2014-Apr-22 15:10 117 12 gusting 17 21.7
2014-Apr-22 15:00 104 13 gusting 19 22.2
2014-Apr-22 14:50 088 13 gusting 19 22.2
2014-Apr-22 14:40 103 13 gusting 19 22.2
2014-Apr-22 14:30 107 15 gusting 19 22.2
2014-Apr-22 14:20 114 13 gusting 20 22.8
2014-Apr-22 14:10 121 12 gusting 20 22.8
2014-Apr-22 14:00 117 13 gusting 19 22.8
2014-Apr-22 13:50 105 13 gusting 18 22.2
2014-Apr-22 13:40 116 15 gusting 20 22.2
2014-Apr-22 13:30 122 13 gusting 20 21.7
2014-Apr-22 13:20 132 14 gusting 19 21.7
2014-Apr-22 13:10 111 14 gusting 20 22.2
2014-Apr-22 13:00 116 15 gusting 20 22.8
2014-Apr-22 12:50 112 15 gusting 19 22.8
2014-Apr-22 12:40 110 12 gusting 18 22.8
2014-Apr-22 12:30 105 14 gusting 19 22.8
2014-Apr-22 12:20 116 14 gusting 19 22.2
2014-Apr-22 12:10 125 13 gusting 19 22.8
2014-Apr-22 12:00 111 12 gusting 15 22.8
2014-Apr-22 11:50 092 10 gusting 14 22.2
2014-Apr-22 11:40 103 10 gusting 14 21.1
2014-Apr-22 11:30 095 10 gusting 15 21.1
2014-Apr-22 11:20 082 12 gusting 17 21.1
2014-Apr-22 11:10 100 10 gusting 14 21.1
2014-Apr-22 11:00 098 8 gusting 14 20.6
2014-Apr-22 10:50 100 8 gusting 13 20.6
2014-Apr-22 10:40 101 8 gusting 14 20.6
2014-Apr-22 10:30 097 8 gusting 13 20.6
2014-Apr-22 10:20 077 8 gusting 12 20.6
2014-Apr-22 10:10 091 7 gusting 10 20.0
2014-Apr-22 10:00 111 4 gusting 7 20.0
2014-Apr-22 09:50 090 5 gusting 7 20.0
2014-Apr-22 09:40 097 4 gusting 6 20.0
2014-Apr-22 09:30 076 4 gusting 6 19.4
2014-Apr-22 09:20 095 4 gusting 6 19.4
2014-Apr-22 09:10 102 5 gusting 7 19.4
2014-Apr-22 09:00 107 4 gusting 5 18.9
2014-Apr-22 08:50 098 4 gusting 6 18.9
2014-Apr-22 08:40 089 2 gusting 4 18.3
2014-Apr-22 08:30 088 1 gusting 4 17.8
2014-Apr-22 08:20 037 1 gusting 2 17.8
2014-Apr-22 08:10 037 2 gusting 5 17.8
2014-Apr-22 08:00 005 2 gusting 6 17.2
2014-Apr-22 07:50 346 4 gusting 7 17.2
2014-Apr-22 07:40 005 5 gusting 6 16.7
2014-Apr-22 07:30 308 3 gusting 6 16.7
2014-Apr-22 07:20 341 3 gusting 6 16.7
2014-Apr-22 07:10 329 4 gusting 6 16.1
2014-Apr-22 07:00 012 4 gusting 7 16.1
2014-Apr-22 06:50 323 3 gusting 6 15.6
2014-Apr-22 06:40 355 0 gusting 2 15.6
2014-Apr-22 06:30 351 1 gusting 2 15.0
2014-Apr-22 06:20 102 15.0
2014-Apr-22 06:10 103 15.6
2014-Apr-22 06:00 102 15.6
2014-Apr-22 05:50 102 15.6
2014-Apr-22 05:40 102 15.6
2014-Apr-22 05:30 102 15.6
2014-Apr-22 05:20 118 0 gusting 2 15.6
2014-Apr-22 05:10 359 1 gusting 4 15.6
2014-Apr-22 05:00 348 3 gusting 6 15.6
2014-Apr-22 04:50 351 2 gusting 5 15.6
2014-Apr-22 04:40 329 1 gusting 4 15.6
2014-Apr-22 04:30 350 0 gusting 2 15.6
2014-Apr-22 04:20 005 15.6
2014-Apr-22 04:10 005 15.0
2014-Apr-22 04:00 005 15.6
2014-Apr-22 03:50 005 15.6
2014-Apr-22 03:40 005 0 gusting 2 16.1
2014-Apr-22 03:30 005 16.1
2014-Apr-22 03:20 005 16.1
2014-Apr-22 03:10 348 1 gusting 4 16.7
2014-Apr-22 03:00 16.7
2014-Apr-22 02:50 16.7
2014-Apr-22 02:40 16.7
2014-Apr-22 02:30 022 4 gusting 6 16.7
2014-Apr-22 02:20 325 4 gusting 6 16.7
2014-Apr-22 02:10 356 3 gusting 7 16.7
2014-Apr-22 02:00 339 3 gusting 6 16.7
2014-Apr-22 01:50 344 4 gusting 6 16.7
2014-Apr-22 01:40 340 4 gusting 6 16.7
2014-Apr-22 01:30 348 4 gusting 5 16.7
2014-Apr-22 01:20 331 2 gusting 4 16.7
2014-Apr-22 01:10 093 16.1
2014-Apr-22 01:00 093 16.7
2014-Apr-22 00:50 146 0 gusting 2 16.7
2014-Apr-22 00:40 146 16.7
2014-Apr-22 00:30 146 0 gusting 2 16.7
2014-Apr-22 00:20 282 17.2
2014-Apr-22 00:10 282 17.2
2014-Apr-22 00:00 282 2 gusting 2 17.2
2014-Apr-21 23:50 17.2
2014-Apr-21 23:40 049 17.2
2014-Apr-21 23:30 055 1 gusting 2 17.8
2014-Apr-21 23:20 046 1 gusting 4 17.8
2014-Apr-21 23:10 057 1 gusting 4 17.8
2014-Apr-21 23:00 076 2 gusting 2 17.8
2014-Apr-21 22:50 082 1 gusting 4 17.8
2014-Apr-21 22:40 275 17.8
2014-Apr-21 22:30 275 0 gusting 2 17.8
2014-Apr-21 22:20 275 0 gusting 2 17.8
2014-Apr-21 22:10 275 0 gusting 4 18.3
2014-Apr-21 22:00 275 0 gusting 4 18.3
2014-Apr-21 21:50 289 2 gusting 6 18.3
2014-Apr-21 21:40 280 4 gusting 7 18.3
2014-Apr-21 21:30 303 4 gusting 8 18.9
2014-Apr-21 21:20 309 2 gusting 6 18.9
2014-Apr-21 21:10 285 4 gusting 6 18.9
2014-Apr-21 21:00 271 2 gusting 7 18.9
2014-Apr-21 20:50 292 2 gusting 6 19.4
2014-Apr-21 20:40 280 5 gusting 6 19.4
2014-Apr-21 20:30 285 4 gusting 6 19.4
2014-Apr-21 20:20 298 3 gusting 6 20.0
2014-Apr-21 20:10 277 5 gusting 8 20.0
2014-Apr-21 20:00 249 5 gusting 6 20.0
2014-Apr-21 19:50 251 5 gusting 8 20.6
2014-Apr-21 19:40 237 4 gusting 6 20.6
2014-Apr-21 19:30 259 4 gusting 6 20.6
2014-Apr-21 19:20 249 3 gusting 6 20.6
2014-Apr-21 19:10 126 20.6
2014-Apr-21 19:00 138 1 gusting 5 21.1
2014-Apr-21 18:50 146 3 gusting 6 21.1
2014-Apr-21 18:40 093 2 gusting 5 21.1
2014-Apr-21 18:30 133 1 gusting 2 21.1
2014-Apr-21 18:20 132 2 gusting 8 21.7
2014-Apr-21 18:10 130 2 gusting 8 22.2
2014-Apr-21 18:00 148 4 gusting 6 22.2
2014-Apr-21 17:50 140 4 gusting 7 22.2
2014-Apr-21 17:40 118 5 gusting 8 22.2
2014-Apr-21 17:30 125 6 gusting 10 22.2
2014-Apr-21 17:20 133 5 gusting 8 22.2
2014-Apr-21 17:10 119 5 gusting 10 22.2
2014-Apr-21 17:00 080 6 gusting 11 22.2
2014-Apr-21 16:50 128 6 gusting 11 22.2
2014-Apr-21 16:40 121 7 gusting 13 21.7
2014-Apr-21 16:30 119 7 gusting 13 22.2
2014-Apr-21 16:20 105 8 gusting 13 22.2
2014-Apr-21 16:10 107 11 gusting 14 22.2
2014-Apr-21 16:00 107 12 gusting 18 22.2
2014-Apr-21 15:50 076 12 gusting 18 22.2
2014-Apr-21 15:40 103 12 gusting 15 22.2
2014-Apr-21 15:30 122 11 gusting 15 22.8
2014-Apr-21 15:20 093 10 gusting 14 22.2
2014-Apr-21 15:10 106 11 gusting 13 21.7
2014-Apr-21 15:00 115 7 gusting 12 21.7
2014-Apr-21 14:50 111 8 gusting 13 21.7
2014-Apr-21 14:40 124 7 gusting 13 22.2
2014-Apr-21 14:30 123 9 gusting 13 22.8
2014-Apr-21 14:20 110 10 gusting 12 22.8
2014-Apr-21 14:10 114 8 gusting 13 22.8
2014-Apr-21 14:00 123 6 gusting 11 22.2
2014-Apr-21 13:50 127 7 gusting 10 22.8
2014-Apr-21 13:40 111 8 gusting 10 22.8
2014-Apr-21 13:30 128 6 gusting 12 22.2
2014-Apr-21 13:20 115 6 gusting 10 22.2
2014-Apr-21 13:10 117 7 gusting 11 22.2
2014-Apr-21 13:00 134 8 gusting 12 22.2
2014-Apr-21 12:50 124 8 gusting 11 21.7
2014-Apr-21 12:40 148 6 gusting 11 22.2
2014-Apr-21 12:30 133 5 gusting 12 22.2
2014-Apr-21 12:20 122 7 gusting 12 22.2
2014-Apr-21 12:10 121 8 gusting 11 22.2
2014-Apr-21 12:00 128 7 gusting 11 22.2